sensor_id;sensor_type;location;lat;lon;timestamp;pressure;altitude;pressure_sealevel;temperature;humidity
68301;BME280;55146;47.468;18.806;2022-11-15T00:00:02;100567.97;;;5.22;94.01
68301;BME280;55146;47.468;18.806;2022-11-15T00:02:27;100563.06;;;5.31;93.77
68301;BME280;55146;47.468;18.806;2022-11-15T00:04:53;100563.19;;;5.36;93.56
68301;BME280;55146;47.468;18.806;2022-11-15T00:07:18;100554.63;;;5.32;93.74
68301;BME280;55146;47.468;18.806;2022-11-15T00:09:43;100568.87;;;5.34;94.08
68301;BME280;55146;47.468;18.806;2022-11-15T00:12:09;100568.72;;;5.29;93.98
68301;BME280;55146;47.468;18.806;2022-11-15T00:14:34;100569.63;;;5.41;93.91
68301;BME280;55146;47.468;18.806;2022-11-15T00:17:00;100575.03;;;5.29;94.27
68301;BME280;55146;47.468;18.806;2022-11-15T00:19:25;100566.37;;;5.33;94.37
68301;BME280;55146;47.468;18.806;2022-11-15T00:21:50;100566.69;;;5.24;95.13
68301;BME280;55146;47.468;18.806;2022-11-15T00:24:16;100563.63;;;5.33;95.25
68301;BME280;55146;47.468;18.806;2022-11-15T00:26:41;100560.91;;;5.33;95.27
68301;BME280;55146;47.468;18.806;2022-11-15T00:29:07;100553.84;;;5.25;95.46
68301;BME280;55146;47.468;18.806;2022-11-15T00:31:32;100555.69;;;5.31;95.60
68301;BME280;55146;47.468;18.806;2022-11-15T00:33:57;100552.59;;;5.27;95.25
68301;BME280;55146;47.468;18.806;2022-11-15T00:36:23;100550.91;;;5.26;95.55
68301;BME280;55146;47.468;18.806;2022-11-15T00:38:48;100548.59;;;5.30;95.55
68301;BME280;55146;47.468;18.806;2022-11-15T00:41:13;100553.72;;;5.20;95.79
68301;BME280;55146;47.468;18.806;2022-11-15T00:43:39;100561.91;;;5.02;95.68
68301;BME280;55146;47.468;18.806;2022-11-15T00:46:05;100558.97;;;5.03;95.60
68301;BME280;55146;47.468;18.806;2022-11-15T00:48:30;100548.19;;;5.08;96.07
68301;BME280;55146;47.468;18.806;2022-11-15T00:50:57;100547.00;;;5.04;95.69
68301;BME280;55146;47.468;18.806;2022-11-15T00:53:22;100543.22;;;4.87;97.21
68301;BME280;55146;47.468;18.806;2022-11-15T00:55:48;100541.97;;;5.01;96.20
68301;BME280;55146;47.468;18.806;2022-11-15T00:58:13;100544.19;;;5.11;95.82
68301;BME280;55146;47.468;18.806;2022-11-15T01:00:38;100540.31;;;5.00;95.83
68301;BME280;55146;47.468;18.806;2022-11-15T01:03:04;100529.03;;;4.97;95.84
68301;BME280;55146;47.468;18.806;2022-11-15T01:05:29;100524.72;;;5.07;95.61
68301;BME280;55146;47.468;18.806;2022-11-15T01:07:57;100516.31;;;5.09;96.20
68301;BME280;55146;47.468;18.806;2022-11-15T01:10:23;100511.69;;;5.27;95.72
68301;BME280;55146;47.468;18.806;2022-11-15T01:12:49;100511.53;;;5.22;96.04
68301;BME280;55146;47.468;18.806;2022-11-15T01:15:14;100507.50;;;5.25;95.70
68301;BME280;55146;47.468;18.806;2022-11-15T01:17:40;100507.41;;;5.32;95.68
68301;BME280;55146;47.468;18.806;2022-11-15T01:20:06;100511.37;;;5.36;95.42
68301;BME280;55146;47.468;18.806;2022-11-15T01:22:31;100508.37;;;5.37;95.45
68301;BME280;55146;47.468;18.806;2022-11-15T01:24:57;100502.22;;;5.30;95.69
68301;BME280;55146;47.468;18.806;2022-11-15T01:27:22;100496.56;;;5.43;95.24
68301;BME280;55146;47.468;18.806;2022-11-15T01:29:47;100495.84;;;5.36;95.45
68301;BME280;55146;47.468;18.806;2022-11-15T01:32:13;100491.56;;;5.40;95.43
68301;BME280;55146;47.468;18.806;2022-11-15T01:34:38;100492.75;;;5.44;95.37
68301;BME280;55146;47.468;18.806;2022-11-15T01:37:03;100497.34;;;5.32;94.92
68301;BME280;55146;47.468;18.806;2022-11-15T01:39:29;100487.81;;;5.23;94.88
68301;BME280;55146;47.468;18.806;2022-11-15T01:41:54;100500.84;;;5.21;95.48
68301;BME280;55146;47.468;18.806;2022-11-15T01:44:36;100498.75;;;5.23;95.21
68301;BME280;55146;47.468;18.806;2022-11-15T01:47:13;100496.09;;;5.46;94.54
68301;BME280;55146;47.468;18.806;2022-11-15T01:52:27;100491.63;;;5.52;93.99
68301;BME280;55146;47.468;18.806;2022-11-15T01:54:59;100493.50;;;5.51;94.11
68301;BME280;55146;47.468;18.806;2022-11-15T01:57:26;100490.34;;;5.54;94.12
68301;BME280;55146;47.468;18.806;2022-11-15T01:59:52;100483.41;;;5.40;94.64
68301;BME280;55146;47.468;18.806;2022-11-15T02:02:17;100484.53;;;5.33;95.43
68301;BME280;55146;47.468;18.806;2022-11-15T02:04:45;100476.69;;;5.24;94.96
68301;BME280;55146;47.468;18.806;2022-11-15T02:07:12;100481.06;;;5.25;94.68
68301;BME280;55146;47.468;18.806;2022-11-15T02:09:39;100469.62;;;5.35;94.61
68301;BME280;55146;47.468;18.806;2022-11-15T02:12:05;100470.91;;;5.33;94.43
68301;BME280;55146;47.468;18.806;2022-11-15T02:14:33;100472.88;;;5.25;94.83
68301;BME280;55146;47.468;18.806;2022-11-15T02:23:14;100465.56;;;5.38;92.64
68301;BME280;55146;47.468;18.806;2022-11-15T02:29:11;100461.03;;;5.32;92.88
68301;BME280;55146;47.468;18.806;2022-11-15T02:31:55;100458.13;;;5.15;93.14
68301;BME280;55146;47.468;18.806;2022-11-15T02:37:23;100455.62;;;5.13;93.00
68301;BME280;55146;47.468;18.806;2022-11-15T02:40:26;100445.78;;;5.12;92.66
68301;BME280;55146;47.468;18.806;2022-11-15T02:42:57;100447.72;;;5.12;92.52
68301;BME280;55146;47.468;18.806;2022-11-15T02:45:53;100444.69;;;5.02;92.53
68301;BME280;55146;47.468;18.806;2022-11-15T02:48:22;100444.09;;;5.00;92.51
68301;BME280;55146;47.468;18.806;2022-11-15T02:50:49;100439.56;;;4.94;92.90
68301;BME280;55146;47.468;18.806;2022-11-15T02:53:15;100443.53;;;5.09;92.54
68301;BME280;55146;47.468;18.806;2022-11-15T02:55:48;100439.22;;;5.02;92.44
68301;BME280;55146;47.468;18.806;2022-11-15T02:58:23;100433.56;;;5.03;92.91
68301;BME280;55146;47.468;18.806;2022-11-15T03:01:15;100440.06;;;5.02;93.22
68301;BME280;55146;47.468;18.806;2022-11-15T03:06:44;100431.53;;;4.99;93.84
68301;BME280;55146;47.468;18.806;2022-11-15T03:11:56;100433.47;;;5.10;93.31
68301;BME280;55146;47.468;18.806;2022-11-15T03:14:29;100428.84;;;5.10;93.72
68301;BME280;55146;47.468;18.806;2022-11-15T03:17:12;100421.41;;;5.17;93.59
68301;BME280;55146;47.468;18.806;2022-11-15T03:20:01;100420.94;;;5.20;93.38
68301;BME280;55146;47.468;18.806;2022-11-15T03:22:42;100407.25;;;5.09;93.13
68301;BME280;55146;47.468;18.806;2022-11-15T03:25:10;100392.69;;;5.15;93.40
68301;BME280;55146;47.468;18.806;2022-11-15T03:27:43;100408.41;;;5.01;93.89
68301;BME280;55146;47.468;18.806;2022-11-15T03:30:12;100407.97;;;5.04;94.05
68301;BME280;55146;47.468;18.806;2022-11-15T03:32:51;100400.00;;;5.03;93.89
68301;BME280;55146;47.468;18.806;2022-11-15T03:35:21;100394.09;;;5.06;94.05
68301;BME280;55146;47.468;18.806;2022-11-15T03:38:17;100396.72;;;5.12;93.94
68301;BME280;55146;47.468;18.806;2022-11-15T03:41:03;100390.75;;;5.04;94.03
68301;BME280;55146;47.468;18.806;2022-11-15T03:46:47;100398.91;;;4.92;95.23
68301;BME280;55146;47.468;18.806;2022-11-15T03:49:25;100401.94;;;4.84;95.26
68301;BME280;55146;47.468;18.806;2022-11-15T03:51:53;100392.81;;;4.60;95.88
68301;BME280;55146;47.468;18.806;2022-11-15T03:54:18;100396.94;;;4.81;95.08
68301;BME280;55146;47.468;18.806;2022-11-15T03:56:43;100393.63;;;4.79;95.07
68301;BME280;55146;47.468;18.806;2022-11-15T03:59:08;100391.59;;;4.74;95.05
68301;BME280;55146;47.468;18.806;2022-11-15T04:01:34;100392.56;;;4.80;94.93
68301;BME280;55146;47.468;18.806;2022-11-15T04:03:59;100387.06;;;4.68;95.18
68301;BME280;55146;47.468;18.806;2022-11-15T04:06:24;100392.41;;;4.75;95.26
68301;BME280;55146;47.468;18.806;2022-11-15T04:08:50;100397.47;;;4.71;95.38
68301;BME280;55146;47.468;18.806;2022-11-15T04:11:15;100389.56;;;4.81;95.23
68301;BME280;55146;47.468;18.806;2022-11-15T04:13:40;100395.56;;;4.90;95.00
68301;BME280;55146;47.468;18.806;2022-11-15T04:16:06;100385.63;;;4.96;94.82
68301;BME280;55146;47.468;18.806;2022-11-15T04:18:31;100398.50;;;4.88;94.57
68301;BME280;55146;47.468;18.806;2022-11-15T04:20:56;100394.28;;;4.93;94.98
68301;BME280;55146;47.468;18.806;2022-11-15T04:23:40;100401.41;;;4.94;94.47
68301;BME280;55146;47.468;18.806;2022-11-15T04:26:24;100403.72;;;4.90;94.76
68301;BME280;55146;47.468;18.806;2022-11-15T04:28:49;100404.00;;;5.00;94.84
68301;BME280;55146;47.468;18.806;2022-11-15T04:31:33;100385.75;;;5.01;94.76
68301;BME280;55146;47.468;18.806;2022-11-15T04:33:59;100375.38;;;5.09;94.76
68301;BME280;55146;47.468;18.806;2022-11-15T04:36:24;100379.78;;;5.10;95.06
68301;BME280;55146;47.468;18.806;2022-11-15T04:39:09;100372.03;;;5.07;95.05
68301;BME280;55146;47.468;18.806;2022-11-15T04:41:34;100364.38;;;5.16;95.21
68301;BME280;55146;47.468;18.806;2022-11-15T04:43:59;100362.34;;;5.11;95.33
68301;BME280;55146;47.468;18.806;2022-11-15T04:46:25;100365.47;;;5.26;94.94
68301;BME280;55146;47.468;18.806;2022-11-15T04:48:51;100367.22;;;5.21;94.92
68301;BME280;55146;47.468;18.806;2022-11-15T04:51:17;100363.63;;;5.09;96.14
68301;BME280;55146;47.468;18.806;2022-11-15T04:53:42;100369.00;;;5.15;96.34
68301;BME280;55146;47.468;18.806;2022-11-15T04:56:08;100361.88;;;5.14;96.13
68301;BME280;55146;47.468;18.806;2022-11-15T04:58:33;100367.34;;;5.26;95.54
68301;BME280;55146;47.468;18.806;2022-11-15T05:01:09;100357.66;;;5.30;95.22
68301;BME280;55146;47.468;18.806;2022-11-15T05:03:35;100361.44;;;5.29;95.45
68301;BME280;55146;47.468;18.806;2022-11-15T05:06:19;100359.28;;;5.19;95.44
68301;BME280;55146;47.468;18.806;2022-11-15T05:08:44;100359.88;;;5.21;95.44
68301;BME280;55146;47.468;18.806;2022-11-15T05:11:10;100363.13;;;5.30;95.12
68301;BME280;55146;47.468;18.806;2022-11-15T05:13:35;100353.62;;;5.33;95.00
68301;BME280;55146;47.468;18.806;2022-11-15T05:16:00;100358.34;;;5.25;95.53
68301;BME280;55146;47.468;18.806;2022-11-15T05:18:26;100351.47;;;5.23;95.83
68301;BME280;55146;47.468;18.806;2022-11-15T05:20:51;100352.97;;;5.19;96.00
68301;BME280;55146;47.468;18.806;2022-11-15T05:23:16;100342.59;;;5.27;95.90
68301;BME280;55146;47.468;18.806;2022-11-15T05:25:42;100346.59;;;5.25;96.06
68301;BME280;55146;47.468;18.806;2022-11-15T05:28:07;100345.53;;;5.26;95.87
68301;BME280;55146;47.468;18.806;2022-11-15T05:30:32;100336.41;;;5.20;95.49
68301;BME280;55146;47.468;18.806;2022-11-15T05:32:58;100333.56;;;5.27;95.54
68301;BME280;55146;47.468;18.806;2022-11-15T05:35:34;100338.41;;;5.25;95.77
68301;BME280;55146;47.468;18.806;2022-11-15T05:38:02;100328.94;;;5.27;95.16
68301;BME280;55146;47.468;18.806;2022-11-15T05:40:28;100325.50;;;5.20;95.88
68301;BME280;55146;47.468;18.806;2022-11-15T05:42:55;100327.06;;;5.28;95.68
68301;BME280;55146;47.468;18.806;2022-11-15T05:45:20;100324.19;;;5.23;96.00
68301;BME280;55146;47.468;18.806;2022-11-15T05:47:47;100329.56;;;5.29;95.82
68301;BME280;55146;47.468;18.806;2022-11-15T05:50:16;100333.44;;;5.22;95.39
68301;BME280;55146;47.468;18.806;2022-11-15T05:52:42;100339.13;;;5.20;95.32
68301;BME280;55146;47.468;18.806;2022-11-15T05:55:08;100350.59;;;5.11;95.41
68301;BME280;55146;47.468;18.806;2022-11-15T05:57:33;100344.09;;;5.12;96.12
68301;BME280;55146;47.468;18.806;2022-11-15T05:59:59;100345.50;;;5.14;95.55
68301;BME280;55146;47.468;18.806;2022-11-15T06:02:24;100347.31;;;5.20;95.29
68301;BME280;55146;47.468;18.806;2022-11-15T06:04:50;100344.97;;;5.24;94.98
68301;BME280;55146;47.468;18.806;2022-11-15T06:07:15;100349.16;;;5.08;94.99
68301;BME280;55146;47.468;18.806;2022-11-15T06:09:40;100331.66;;;5.16;95.55
68301;BME280;55146;47.468;18.806;2022-11-15T06:12:06;100327.75;;;5.12;95.85
68301;BME280;55146;47.468;18.806;2022-11-15T06:14:31;100322.44;;;5.28;95.83
68301;BME280;55146;47.468;18.806;2022-11-15T06:16:56;100331.06;;;5.25;96.45
68301;BME280;55146;47.468;18.806;2022-11-15T06:19:22;100337.84;;;5.23;95.76
68301;BME280;55146;47.468;18.806;2022-11-15T06:21:47;100336.53;;;5.25;95.87
68301;BME280;55146;47.468;18.806;2022-11-15T06:24:12;100341.41;;;5.23;96.04
68301;BME280;55146;47.468;18.806;2022-11-15T06:26:38;100337.12;;;5.27;95.95
68301;BME280;55146;47.468;18.806;2022-11-15T06:29:04;100335.47;;;5.38;95.88
68301;BME280;55146;47.468;18.806;2022-11-15T06:31:29;100330.50;;;5.35;96.51
68301;BME280;55146;47.468;18.806;2022-11-15T06:33:55;100338.31;;;5.32;96.70
68301;BME280;55146;47.468;18.806;2022-11-15T06:36:20;100339.75;;;5.34;96.56
68301;BME280;55146;47.468;18.806;2022-11-15T06:38:45;100340.00;;;5.44;96.30
68301;BME280;55146;47.468;18.806;2022-11-15T06:41:12;100347.94;;;5.34;96.48
68301;BME280;55146;47.468;18.806;2022-11-15T06:43:39;100351.97;;;5.43;96.16
68301;BME280;55146;47.468;18.806;2022-11-15T06:46:05;100347.97;;;5.46;95.93
68301;BME280;55146;47.468;18.806;2022-11-15T06:48:31;100333.59;;;5.50;96.08
68301;BME280;55146;47.468;18.806;2022-11-15T06:50:58;100334.44;;;5.51;96.95
68301;BME280;55146;47.468;18.806;2022-11-15T06:53:24;100331.81;;;5.56;97.35
68301;BME280;55146;47.468;18.806;2022-11-15T06:55:50;100323.41;;;5.46;98.47
68301;BME280;55146;47.468;18.806;2022-11-15T06:58:16;100325.91;;;5.47;97.76
68301;BME280;55146;47.468;18.806;2022-11-15T07:00:42;100325.81;;;5.65;97.34
68301;BME280;55146;47.468;18.806;2022-11-15T07:03:07;100326.53;;;5.73;97.06
68301;BME280;55146;47.468;18.806;2022-11-15T07:05:33;100323.19;;;5.70;97.45
68301;BME280;55146;47.468;18.806;2022-11-15T07:07:59;100311.31;;;5.77;97.19
68301;BME280;55146;47.468;18.806;2022-11-15T07:10:25;100318.69;;;5.76;96.79
68301;BME280;55146;47.468;18.806;2022-11-15T07:12:52;100306.19;;;5.80;97.55
68301;BME280;55146;47.468;18.806;2022-11-15T07:15:19;100308.81;;;5.75;98.05
68301;BME280;55146;47.468;18.806;2022-11-15T07:17:45;100321.78;;;5.80;98.06
68301;BME280;55146;47.468;18.806;2022-11-15T07:20:11;100321.50;;;5.81;97.92
68301;BME280;55146;47.468;18.806;2022-11-15T07:22:39;100325.91;;;5.82;97.34
68301;BME280;55146;47.468;18.806;2022-11-15T07:25:04;100317.97;;;5.57;99.70
68301;BME280;55146;47.468;18.806;2022-11-15T07:27:29;100321.41;;;5.76;100.00
68301;BME280;55146;47.468;18.806;2022-11-15T07:29:55;100318.06;;;5.74;100.00
68301;BME280;55146;47.468;18.806;2022-11-15T07:32:20;100319.28;;;5.78;100.00
68301;BME280;55146;47.468;18.806;2022-11-15T07:34:45;100313.22;;;5.76;100.00
68301;BME280;55146;47.468;18.806;2022-11-15T07:37:11;100314.75;;;5.84;100.00
68301;BME280;55146;47.468;18.806;2022-11-15T07:39:36;100314.91;;;6.00;100.00
68301;BME280;55146;47.468;18.806;2022-11-15T07:42:02;100315.13;;;5.99;100.00
68301;BME280;55146;47.468;18.806;2022-11-15T07:44:47;100326.66;;;6.01;100.00
68301;BME280;55146;47.468;18.806;2022-11-15T07:47:12;100329.84;;;6.09;99.90
68301;BME280;55146;47.468;18.806;2022-11-15T07:49:38;100320.59;;;6.11;100.00
68301;BME280;55146;47.468;18.806;2022-11-15T07:52:03;100324.47;;;6.26;100.00
68301;BME280;55146;47.468;18.806;2022-11-15T07:54:29;100321.63;;;6.33;99.73
68301;BME280;55146;47.468;18.806;2022-11-15T07:56:54;100298.69;;;6.34;100.00
68301;BME280;55146;47.468;18.806;2022-11-15T07:59:19;100299.13;;;6.42;100.00
68301;BME280;55146;47.468;18.806;2022-11-15T08:01:45;100296.72;;;6.58;100.00
68301;BME280;55146;47.468;18.806;2022-11-15T08:04:10;100298.81;;;6.67;100.00
68301;BME280;55146;47.468;18.806;2022-11-15T08:06:36;100301.66;;;6.72;99.98
68301;BME280;55146;47.468;18.806;2022-11-15T08:09:02;100295.22;;;6.78;100.00
68301;BME280;55146;47.468;18.806;2022-11-15T08:11:27;100297.53;;;6.86;100.00
68301;BME280;55146;47.468;18.806;2022-11-15T08:13:52;100293.28;;;7.07;100.00
68301;BME280;55146;47.468;18.806;2022-11-15T08:16:18;100298.06;;;7.00;99.83
68301;BME280;55146;47.468;18.806;2022-11-15T08:18:43;100295.91;;;7.02;99.82
68301;BME280;55146;47.468;18.806;2022-11-15T08:21:09;100294.66;;;6.93;100.00
68301;BME280;55146;47.468;18.806;2022-11-15T08:23:34;100288.78;;;7.01;100.00
68301;BME280;55146;47.468;18.806;2022-11-15T08:26:04;100287.81;;;7.07;100.00
68301;BME280;55146;47.468;18.806;2022-11-15T08:28:30;100281.59;;;7.12;100.00
68301;BME280;55146;47.468;18.806;2022-11-15T08:30:55;100274.63;;;7.21;100.00
68301;BME280;55146;47.468;18.806;2022-11-15T08:33:21;100278.09;;;7.16;100.00
68301;BME280;55146;47.468;18.806;2022-11-15T08:35:46;100266.34;;;7.32;100.00
68301;BME280;55146;47.468;18.806;2022-11-15T08:38:11;100264.66;;;7.48;100.00
68301;BME280;55146;47.468;18.806;2022-11-15T08:40:37;100255.16;;;7.51;100.00
68301;BME280;55146;47.468;18.806;2022-11-15T08:43:03;100259.03;;;7.55;100.00
68301;BME280;55146;47.468;18.806;2022-11-15T08:45:30;100248.97;;;7.60;100.00
68301;BME280;55146;47.468;18.806;2022-11-15T08:47:56;100241.59;;;7.78;100.00
68301;BME280;55146;47.468;18.806;2022-11-15T08:50:21;100245.53;;;7.87;98.53
68301;BME280;55146;47.468;18.806;2022-11-15T08:52:47;100245.59;;;7.92;97.66
68301;BME280;55146;47.468;18.806;2022-11-15T08:55:13;100241.28;;;7.96;95.91
68301;BME280;55146;47.468;18.806;2022-11-15T08:57:39;100248.66;;;7.95;95.28
68301;BME280;55146;47.468;18.806;2022-11-15T09:00:04;100249.81;;;7.99;95.55
68301;BME280;55146;47.468;18.806;2022-11-15T09:02:30;100254.28;;;8.05;95.43
68301;BME280;55146;47.468;18.806;2022-11-15T09:04:55;100257.31;;;8.09;95.78
68301;BME280;55146;47.468;18.806;2022-11-15T09:07:21;100260.66;;;8.11;95.91
68301;BME280;55146;47.468;18.806;2022-11-15T09:09:46;100257.13;;;8.16;95.32
68301;BME280;55146;47.468;18.806;2022-11-15T09:12:11;100249.00;;;8.21;95.76
68301;BME280;55146;47.468;18.806;2022-11-15T09:14:37;100242.94;;;8.40;94.16
68301;BME280;55146;47.468;18.806;2022-11-15T09:17:02;100245.53;;;8.52;93.55
68301;BME280;55146;47.468;18.806;2022-11-15T09:19:28;100245.69;;;8.62;92.49
68301;BME280;55146;47.468;18.806;2022-11-15T09:21:53;100238.56;;;8.66;90.38
68301;BME280;55146;47.468;18.806;2022-11-15T09:24:19;100239.72;;;8.70;91.07
68301;BME280;55146;47.468;18.806;2022-11-15T09:26:45;100250.63;;;8.65;92.04
68301;BME280;55146;47.468;18.806;2022-11-15T09:29:10;100243.44;;;8.59;92.36
68301;BME280;55146;47.468;18.806;2022-11-15T09:31:36;100245.09;;;8.60;92.52
68301;BME280;55146;47.468;18.806;2022-11-15T09:34:01;100242.72;;;8.69;91.61
68301;BME280;55146;47.468;18.806;2022-11-15T09:36:27;100240.28;;;8.72;92.76
68301;BME280;55146;47.468;18.806;2022-11-15T09:38:52;100235.88;;;8.71;91.78
68301;BME280;55146;47.468;18.806;2022-11-15T09:41:34;100243.56;;;8.69;91.72
68301;BME280;55146;47.468;18.806;2022-11-15T09:47:22;100231.81;;;8.74;91.55
68301;BME280;55146;47.468;18.806;2022-11-15T09:49:53;100225.19;;;8.70;92.06
68301;BME280;55146;47.468;18.806;2022-11-15T09:52:22;100231.84;;;8.79;91.60
68301;BME280;55146;47.468;18.806;2022-11-15T09:54:50;100221.75;;;8.84;91.38
68301;BME280;55146;47.468;18.806;2022-11-15T10:00:01;100219.50;;;8.76;91.16
68301;BME280;55146;47.468;18.806;2022-11-15T10:05:19;100205.91;;;8.65;92.14
68301;BME280;55146;47.468;18.806;2022-11-15T10:10:39;100191.88;;;8.56;93.79
68301;BME280;55146;47.468;18.806;2022-11-15T10:13:13;100190.41;;;8.48;93.21
68301;BME280;55146;47.468;18.806;2022-11-15T10:15:43;100193.78;;;8.56;93.75
68301;BME280;55146;47.468;18.806;2022-11-15T10:20:49;100184.78;;;8.60;93.10
68301;BME280;55146;47.468;18.806;2022-11-15T10:23:18;100180.06;;;8.56;93.75
68301;BME280;55146;47.468;18.806;2022-11-15T10:25:44;100178.41;;;8.55;93.45
68301;BME280;55146;47.468;18.806;2022-11-15T10:28:27;100173.22;;;8.58;93.24
68301;BME280;55146;47.468;18.806;2022-11-15T10:30:55;100169.94;;;8.56;93.52
68301;BME280;55146;47.468;18.806;2022-11-15T10:43:44;100170.28;;;8.65;94.46
68301;BME280;55146;47.468;18.806;2022-11-15T10:46:23;100168.38;;;8.65;94.08
68301;BME280;55146;47.468;18.806;2022-11-15T10:48:49;100164.03;;;8.69;93.88
68301;BME280;55146;47.468;18.806;2022-11-15T10:51:27;100154.75;;;8.75;93.22
68301;BME280;55146;47.468;18.806;2022-11-15T10:53:54;100149.28;;;8.75;93.37
68301;BME280;55146;47.468;18.806;2022-11-15T10:56:22;100141.91;;;8.81;93.57
68301;BME280;55146;47.468;18.806;2022-11-15T10:58:58;100134.59;;;8.91;92.19
68301;BME280;55146;47.468;18.806;2022-11-15T11:01:25;100122.34;;;8.72;92.48
68301;BME280;55146;47.468;18.806;2022-11-15T11:04:04;100119.41;;;8.79;93.12
68301;BME280;55146;47.468;18.806;2022-11-15T11:06:55;100115.59;;;8.85;93.37
68301;BME280;55146;47.468;18.806;2022-11-15T11:11:51;100118.03;;;8.76;92.62
68301;BME280;55146;47.468;18.806;2022-11-15T11:14:24;100113.34;;;8.77;92.65
68301;BME280;55146;47.468;18.806;2022-11-15T11:16:57;100115.44;;;8.65;92.99
68301;BME280;55146;47.468;18.806;2022-11-15T11:22:12;100099.31;;;8.68;93.65
68301;BME280;55146;47.468;18.806;2022-11-15T11:27:48;100101.19;;;8.63;93.61
68301;BME280;55146;47.468;18.806;2022-11-15T11:30:21;100099.84;;;8.70;93.24
68301;BME280;55146;47.468;18.806;2022-11-15T11:35:19;100107.22;;;8.65;92.87
68301;BME280;55146;47.468;18.806;2022-11-15T11:37:52;100104.69;;;8.58;93.84
68301;BME280;55146;47.468;18.806;2022-11-15T11:40:30;100099.19;;;8.58;93.20
68301;BME280;55146;47.468;18.806;2022-11-15T11:45:42;100096.81;;;8.67;92.78
68301;BME280;55146;47.468;18.806;2022-11-15T11:48:14;100094.91;;;8.67;92.89
68301;BME280;55146;47.468;18.806;2022-11-15T11:50:44;100088.88;;;8.70;93.07
68301;BME280;55146;47.468;18.806;2022-11-15T11:53:15;100080.94;;;8.69;93.23
68301;BME280;55146;47.468;18.806;2022-11-15T11:55:45;100076.50;;;8.63;93.62
68301;BME280;55146;47.468;18.806;2022-11-15T11:58:34;100071.72;;;8.48;94.44
68301;BME280;55146;47.468;18.806;2022-11-15T12:01:12;100074.09;;;8.39;96.05
68301;BME280;55146;47.468;18.806;2022-11-15T12:04:01;100064.84;;;8.45;96.15
68301;BME280;55146;47.468;18.806;2022-11-15T12:06:36;100057.66;;;8.39;97.27
68301;BME280;55146;47.468;18.806;2022-11-15T12:09:20;100058.47;;;8.40;97.28
68301;BME280;55146;47.468;18.806;2022-11-15T12:14:57;100045.66;;;8.45;97.14
68301;BME280;55146;47.468;18.806;2022-11-15T12:17:27;100049.97;;;8.36;97.54
68301;BME280;55146;47.468;18.806;2022-11-15T12:19:58;100033.13;;;8.28;97.62
68301;BME280;55146;47.468;18.806;2022-11-15T12:25:20;100030.22;;;8.39;97.12
68301;BME280;55146;47.468;18.806;2022-11-15T12:27:57;100043.25;;;8.27;98.05
68301;BME280;55146;47.468;18.806;2022-11-15T12:30:38;100032.78;;;8.19;99.05
68301;BME280;55146;47.468;18.806;2022-11-15T12:33:38;100026.53;;;8.24;98.24
68301;BME280;55146;47.468;18.806;2022-11-15T12:36:09;100026.63;;;8.34;97.79
68301;BME280;55146;47.468;18.806;2022-11-15T12:38:58;100023.13;;;8.38;98.36
68301;BME280;55146;47.468;18.806;2022-11-15T12:41:27;100019.87;;;8.46;97.93
68301;BME280;55146;47.468;18.806;2022-11-15T12:43:53;100017.09;;;8.41;97.85
68301;BME280;55146;47.468;18.806;2022-11-15T12:48:49;100013.66;;;8.56;96.28
68301;BME280;55146;47.468;18.806;2022-11-15T12:51:16;100015.12;;;8.32;96.91
68301;BME280;55146;47.468;18.806;2022-11-15T12:53:42;100010.47;;;8.32;97.99
68301;BME280;55146;47.468;18.806;2022-11-15T13:06:48;99991.19;;;8.27;98.58
68301;BME280;55146;47.468;18.806;2022-11-15T13:14:41;100007.00;;;8.47;96.21
68301;BME280;55146;47.468;18.806;2022-11-15T13:17:22;99993.00;;;8.43;97.18
68301;BME280;55146;47.468;18.806;2022-11-15T13:22:48;99988.53;;;8.32;99.52
68301;BME280;55146;47.468;18.806;2022-11-15T13:28:47;99984.34;;;8.57;96.80
68301;BME280;55146;47.468;18.806;2022-11-15T13:33:33;99975.47;;;8.44;97.76
68301;BME280;55146;47.468;18.806;2022-11-15T13:36:03;99972.16;;;8.42;98.22
68301;BME280;55146;47.468;18.806;2022-11-15T13:38:35;99971.37;;;8.47;98.33
68301;BME280;55146;47.468;18.806;2022-11-15T13:43:39;99964.00;;;8.52;95.73
68301;BME280;55146;47.468;18.806;2022-11-15T13:48:47;99956.91;;;8.20;98.89
68301;BME280;55146;47.468;18.806;2022-11-15T13:56:35;99931.06;;;8.10;98.48
68301;BME280;55146;47.468;18.806;2022-11-15T13:59:14;99935.81;;;8.20;98.35
68301;BME280;55146;47.468;18.806;2022-11-15T14:01:42;99936.78;;;8.09;98.45
68301;BME280;55146;47.468;18.806;2022-11-15T14:04:11;99928.62;;;8.14;99.23
68301;BME280;55146;47.468;18.806;2022-11-15T14:06:45;99933.81;;;8.10;97.83
68301;BME280;55146;47.468;18.806;2022-11-15T14:11:37;99941.94;;;8.00;98.31
68301;BME280;55146;47.468;18.806;2022-11-15T14:14:11;99934.66;;;7.84;99.51
68301;BME280;55146;47.468;18.806;2022-11-15T14:16:40;99934.16;;;7.87;99.50
68301;BME280;55146;47.468;18.806;2022-11-15T14:19:11;99932.87;;;7.95;99.02
68301;BME280;55146;47.468;18.806;2022-11-15T14:21:36;99936.12;;;7.92;99.16
68301;BME280;55146;47.468;18.806;2022-11-15T14:24:19;99929.25;;;7.89;98.45
68301;BME280;55146;47.468;18.806;2022-11-15T14:26:45;99930.53;;;7.77;99.02
68301;BME280;55146;47.468;18.806;2022-11-15T14:29:27;99927.00;;;7.81;99.05
68301;BME280;55146;47.468;18.806;2022-11-15T14:31:54;99919.06;;;7.85;98.44
68301;BME280;55146;47.468;18.806;2022-11-15T14:34:32;99917.09;;;7.75;99.72
68301;BME280;55146;47.468;18.806;2022-11-15T14:36:57;99916.22;;;7.69;100.00
68301;BME280;55146;47.468;18.806;2022-11-15T14:39:22;99918.75;;;7.76;100.00
68301;BME280;55146;47.468;18.806;2022-11-15T14:41:49;99916.03;;;7.81;99.98
68301;BME280;55146;47.468;18.806;2022-11-15T14:44:14;99916.31;;;7.85;99.36
68301;BME280;55146;47.468;18.806;2022-11-15T14:46:43;99919.44;;;7.93;98.30